SHMÚ vydal meteorologické výstrahy na Nízke teploty Zobraziť výstrahy

METAR

Letisková meteorologická správa METAR

Meteorologické informácie z ďalších profesionálnych meteorologických staníc SHMÚ zobrazené v tvare zodpovedajúcom pravidlám kódovania správ METAR sú uvedené v položke „METSYN

Informácie o správe METAR

06.03.2021 - 18:00 UTC

METAR LZIB 061800Z 31004KT CAVOK 02/M09 Q1031 NOSIG=
METAR LZKZ 061800Z 23003KT 210V280 CAVOK M02/M07 Q1030=
METAR LZPP 061800Z VRB02KT CAVOK 00/M05 Q1030=
METAR LZTT 061800Z 27009KT 9999 FEW050 M03/M09 Q1027=
METAR LZZI 061800Z VRB01KT CAVOK M01/M07 Q1030=

06.03.2021 - 17:30 UTC

METAR LZIB 061730Z 31004KT CAVOK 03/M09 Q1031 NOSIG=
METAR LZKZ 061730Z 09004KT CAVOK M01/M08 Q1030=
METAR LZPP 061730Z 29003KT CAVOK 01/M07 Q1030=
METAR LZTT 061730Z 26010KT 9999 FEW050 M03/M10 Q1027=
METAR LZZI 061730Z VRB01KT 9999 FEW060 M00/M07 Q1030=

Správy METAR z vojenských meteorologických staníc (MIL)
SHMÚ nezodpovedá za ich obsah.

06.03.2021 - 18:00 UTC

METAR 061800Z
METAR LZPW 061800Z VRB02KT CAVOK M00/M08 Q1029=

06.03.2021 - 18:00 UTC

METAR 061800Z
METAR LZMC 061800Z 16002KT CAVOK M01/M07 Q1031=

06.03.2021 - 18:00 UTC

METAR LZSL 061800Z VRB02KT CAVOK M01/M09 Q1030=

06.03.2021 - 17:00 UTC

METAR 061700Z
METAR LZMC 061700Z 00000KT CAVOK 02/M08 Q1031=

06.03.2021 - 17:00 UTC

METAR LZSL 061700Z 20004KT CAVOK 00/M07 Q1029=

06.03.2021 - 17:00 UTC

METAR 061700Z
METAR LZPW 061700Z 00000KT CAVOK 01/M09 Q1029=